Terminal Aerodrome Forecast
Issued by NWS

Home | Current Version | Previous Version | Graphics & Text | Print | Product List | Glossary On
Versions: 1 2 3 4 5 6 7 8 9 10 11 12 13 14 15 16 17 18 19 20 21 22 23 24 25 26 27 28 29 30 31 32 33 34 35 36 37 38
000
FTUS43 KLOT 222100 AAC
TAFMDW
TAF AMD
KMDW 222157Z 2222/2318 25006KT P6SM FEW025 BKN250
     FM222300 07006KT P6SM FEW025 BKN250
     FM230100 08004KT P6SM SCT040 BKN200
     FM230700 07003KT 4SM BR BKN008
     FM231400 10006KT P6SM SCT015 BKN200=

USA.gov is the U.S. government's official web portal to all federal, state and local government web resources and services.